createdAt,value
2023-03-27T00:01:18.149Z,2.71
2023-03-27T00:03:49.440Z,2.78
2023-03-27T00:06:18.323Z,2.87
2023-03-27T00:08:46.653Z,2.95
2023-03-27T00:11:14.762Z,3.03
2023-03-27T00:13:49.130Z,3.13
2023-03-27T00:16:21.770Z,3.24
2023-03-27T00:18:48.646Z,3.30
2023-03-27T00:21:15.279Z,3.34
2023-03-27T00:23:44.310Z,3.38
2023-03-27T00:26:16.020Z,3.42
2023-03-27T00:28:44.674Z,3.45
2023-03-27T00:31:15.862Z,3.47
2023-03-27T00:33:45.117Z,3.50
2023-03-27T00:36:11.787Z,3.53
2023-03-27T00:38:40.781Z,3.56
2023-03-27T00:41:10.310Z,3.60
2023-03-27T00:43:43.377Z,3.64
2023-03-27T00:46:44.708Z,3.64
2023-03-27T00:49:14.196Z,3.62
2023-03-27T00:51:43.368Z,3.58
2023-03-27T00:54:16.560Z,3.54
2023-03-27T00:56:49.880Z,3.54
2023-03-27T00:59:19.652Z,3.53
2023-03-27T01:01:49.686Z,3.56
2023-03-27T01:04:21.416Z,3.60
2023-03-27T01:06:51.597Z,3.62
2023-03-27T01:09:21.151Z,3.60
2023-03-27T01:12:02.662Z,3.61
2023-03-27T01:14:50.401Z,3.62
2023-03-27T01:17:52.277Z,3.60
2023-03-27T01:20:38.230Z,3.54
2023-03-27T01:23:16.780Z,3.49
2023-03-27T01:26:35.950Z,3.48
2023-03-27T01:29:05.926Z,3.53
2023-03-27T01:31:46.949Z,3.57
2023-03-27T01:34:26.985Z,3.61
2023-03-27T01:37:12.345Z,3.65
2023-03-27T01:39:48.699Z,3.65
2023-03-27T01:42:24.609Z,3.49
2023-03-27T01:44:56.198Z,3.37
2023-03-27T01:47:56.083Z,3.25
2023-03-27T01:50:28.716Z,3.09
2023-03-27T01:53:24.353Z,2.97
2023-03-27T01:55:58.449Z,2.92
2023-03-27T01:58:33.201Z,2.93
2023-03-27T02:01:01.776Z,2.84
2023-03-27T02:03:41.596Z,2.80
2023-03-27T02:06:34.698Z,2.75
2023-03-27T02:09:05.120Z,2.70
2023-03-27T02:11:49.079Z,2.65
2023-03-27T02:14:21.815Z,2.57
2023-03-27T02:16:56.069Z,2.51
2023-03-27T02:19:37.399Z,2.44
2023-03-27T02:22:03.887Z,2.33
2023-03-27T02:24:30.703Z,2.19
2023-03-27T02:27:12.785Z,2.10
2023-03-27T02:29:51.604Z,2.04
2023-03-27T02:32:26.451Z,2.00
2023-03-27T02:35:17.765Z,2.01
2023-03-27T02:37:47.181Z,1.97
2023-03-27T02:40:20.076Z,1.90
2023-03-27T02:42:54.218Z,1.84
2023-03-27T02:45:29.919Z,1.81
2023-03-27T02:48:12.284Z,1.78
2023-03-27T02:50:48.155Z,1.73
2023-03-27T02:53:21.907Z,1.65
2023-03-27T02:55:58.811Z,1.64
2023-03-27T02:58:50.440Z,1.72
2023-03-27T03:01:23.992Z,1.81
2023-03-27T03:03:53.816Z,1.91
2023-03-27T03:06:29.852Z,1.98
2023-03-27T03:09:10.230Z,2.11
2023-03-27T03:11:46.247Z,2.18
2023-03-27T03:14:17.273Z,2.23
2023-03-27T03:16:43.775Z,2.28
2023-03-27T03:19:10.238Z,2.32
2023-03-27T03:21:41.253Z,2.37
2023-03-27T03:24:10.500Z,2.40
2023-03-27T03:26:37.006Z,2.41
2023-03-27T03:29:05.826Z,2.40
2023-03-27T03:31:44.645Z,2.36
2023-03-27T03:34:18.325Z,2.27
2023-03-27T03:36:50.244Z,2.21
2023-03-27T03:39:17.457Z,2.14
2023-03-27T03:41:43.935Z,2.13
2023-03-27T03:44:13.314Z,2.12
2023-03-27T03:46:40.634Z,2.15
2023-03-27T03:49:09.601Z,2.16
2023-03-27T03:51:38.744Z,2.17
2023-03-27T03:54:06.685Z,2.14
2023-03-27T03:56:37.194Z,2.18
2023-03-27T03:59:08.555Z,2.16
2023-03-27T04:01:35.495Z,2.08
2023-03-27T04:04:02.296Z,2.03
2023-03-27T04:06:31.001Z,2.04
2023-03-27T04:09:02.008Z,1.98
2023-03-27T04:11:28.491Z,1.87
2023-03-27T04:13:57.058Z,1.82
2023-03-27T04:16:23.525Z,1.76
2023-03-27T04:18:54.248Z,1.70
2023-03-27T04:21:20.892Z,1.68
2023-03-27T04:23:51.381Z,1.66
2023-03-27T04:26:17.921Z,1.54
2023-03-27T04:28:44.477Z,1.44
2023-03-27T04:31:14.237Z,1.40
2023-03-27T04:33:46.617Z,1.33
2023-03-27T04:36:16.570Z,1.21
2023-03-27T04:38:45.567Z,1.25
2023-03-27T04:41:14.722Z,1.31
2023-03-27T04:43:41.921Z,1.28
2023-03-27T04:46:13.936Z,1.26
2023-03-27T04:48:42.832Z,1.29
2023-03-27T04:51:09.504Z,1.38
2023-03-27T04:53:37.720Z,1.58
2023-03-27T04:56:05.510Z,1.66
2023-03-27T04:58:37.636Z,1.70
2023-03-27T05:01:07.455Z,1.75
2023-03-27T05:03:34.839Z,1.79
2023-03-27T05:06:03.894Z,1.76
2023-03-27T05:08:33.687Z,1.76
2023-03-27T05:11:00.319Z,1.76
2023-03-27T05:13:29.361Z,1.74
2023-03-27T05:15:59.373Z,1.70
2023-03-27T05:18:30.691Z,1.64
2023-03-27T05:20:59.995Z,1.60
2023-03-27T05:23:33.896Z,1.58
2023-03-27T05:26:02.424Z,1.59
2023-03-27T05:28:29.479Z,1.58
2023-03-27T05:30:57.173Z,1.55
2023-03-27T05:33:26.646Z,1.54
2023-03-27T05:35:53.159Z,1.53
2023-03-27T05:38:20.138Z,1.53
2023-03-27T05:40:46.652Z,1.50
2023-03-27T05:43:13.537Z,1.50
2023-03-27T05:45:42.367Z,1.49
2023-03-27T05:48:11.921Z,1.46
2023-03-27T05:50:41.641Z,1.46
2023-03-27T05:53:12.809Z,1.49
2023-03-27T05:55:42.669Z,1.49
2023-03-27T05:58:13.276Z,1.51
2023-03-27T06:00:45.130Z,1.56
2023-03-27T06:03:15.664Z,1.63
2023-03-27T06:05:42.483Z,1.70
2023-03-27T06:08:11.748Z,1.81
2023-03-27T06:10:41.984Z,1.96
2023-03-27T06:13:13.637Z,2.10
2023-03-27T06:15:42.929Z,2.28
2023-03-27T06:18:11.033Z,2.45
2023-03-27T06:20:41.117Z,2.86
2023-03-27T06:23:09.867Z,3.35
2023-03-27T06:25:39.201Z,3.14
2023-03-27T06:28:08.344Z,2.97
2023-03-27T06:30:37.979Z,2.92
2023-03-27T06:33:08.695Z,2.83
2023-03-27T06:35:36.289Z,3.11
2023-03-27T06:38:02.851Z,3.63
2023-03-27T06:40:31.461Z,3.87
2023-03-27T06:42:59.449Z,3.81
2023-03-27T06:45:31.381Z,3.38
2023-03-27T06:48:15.987Z,3.10
2023-03-27T06:50:49.874Z,3.13
2023-03-27T06:53:27.323Z,4.26
2023-03-27T06:55:56.719Z,4.73
2023-03-27T06:58:25.714Z,4.74
2023-03-27T07:00:52.214Z,4.79
2023-03-27T07:03:21.240Z,4.60
2023-03-27T07:05:48.976Z,4.71
2023-03-27T07:08:23.461Z,4.59
2023-03-27T07:13:27.585Z,4.60
2023-03-27T07:15:55.044Z,4.73
2023-03-27T07:18:22.898Z,4.88
2023-03-27T07:20:50.480Z,5.03
2023-03-27T07:23:19.518Z,5.16
2023-03-27T07:25:50.274Z,5.25
2023-03-27T07:28:18.484Z,5.34
2023-03-27T07:30:47.679Z,5.33
2023-03-27T07:33:16.678Z,5.53
2023-03-27T07:35:49.330Z,5.94
2023-03-27T07:38:16.990Z,5.88
2023-03-27T07:40:46.823Z,6.03
2023-03-27T07:43:14.154Z,6.06
2023-03-27T07:45:43.732Z,6.09
2023-03-27T07:48:16.797Z,6.31
2023-03-27T07:50:48.523Z,6.42
2023-03-27T07:53:33.712Z,6.64
2023-03-27T07:56:06.138Z,7.21
2023-03-27T07:58:32.715Z,7.95
2023-03-27T08:01:02.872Z,7.98
2023-03-27T08:03:30.885Z,8.24
2023-03-27T08:06:03.599Z,8.57
2023-03-27T08:08:34.885Z,8.99
2023-03-27T08:11:05.099Z,9.13
2023-03-27T08:13:33.853Z,9.56
2023-03-27T08:16:09.499Z,8.73
2023-03-27T08:18:38.832Z,7.16
2023-03-27T08:21:10.358Z,6.22
2023-03-27T08:23:37.553Z,5.71
2023-03-27T08:26:05.493Z,5.37
2023-03-27T08:28:34.218Z,5.06
2023-03-27T08:31:04.007Z,4.91
2023-03-27T08:33:33.027Z,6.23
2023-03-27T08:35:59.868Z,7.48
2023-03-27T08:38:28.619Z,8.59
2023-03-27T08:40:59.188Z,9.10
2023-03-27T08:43:39.245Z,9.73
2023-03-27T08:46:08.177Z,9.17
2023-03-27T08:48:47.393Z,7.70
2023-03-27T08:51:28.581Z,6.75
2023-03-27T08:54:07.189Z,7.81
2023-03-27T08:56:37.225Z,8.31
2023-03-27T08:59:04.148Z,8.93
2023-03-27T09:01:58.499Z,8.83
2023-03-27T09:04:40.683Z,8.93
2023-03-27T09:07:19.544Z,8.95
2023-03-27T09:10:27.830Z,9.17
2023-03-27T09:12:55.233Z,9.45
2023-03-27T09:15:32.236Z,9.65
2023-03-27T09:18:13.125Z,9.23
2023-03-27T09:20:44.761Z,8.83
2023-03-27T09:23:23.400Z,8.55
2023-03-27T09:25:56.674Z,8.11
2023-03-27T09:28:35.867Z,7.87
2023-03-27T09:31:27.579Z,6.88
2023-03-27T09:33:55.631Z,5.59
2023-03-27T09:36:24.854Z,4.53
2023-03-27T09:39:02.737Z,4.19
2023-03-27T09:41:34.534Z,4.10
2023-03-27T09:44:20.972Z,3.93
2023-03-27T09:46:52.352Z,3.88
2023-03-27T09:49:20.049Z,3.98
2023-03-27T09:51:54.742Z,4.17
2023-03-27T09:54:25.524Z,4.28
2023-03-27T09:57:06.268Z,4.36
2023-03-27T09:59:37.367Z,4.42
2023-03-27T10:02:16.004Z,4.89
2023-03-27T10:04:59.318Z,5.34
2023-03-27T10:07:27.136Z,5.83
2023-03-27T10:10:25.219Z,6.15
2023-03-27T10:12:59.359Z,6.40
2023-03-27T10:15:32.480Z,6.76
2023-03-27T10:18:01.086Z,6.72
2023-03-27T10:20:29.941Z,6.77
2023-03-27T10:23:03.290Z,6.94
2023-03-27T10:25:34.196Z,7.10
2023-03-27T10:28:18.469Z,7.18
2023-03-27T10:30:49.162Z,7.07
2023-03-27T10:33:36.982Z,7.27
2023-03-27T10:36:08.628Z,7.19
2023-03-27T10:38:38.495Z,7.43
2023-03-27T10:41:14.270Z,7.49
2023-03-27T10:43:46.150Z,7.21
2023-03-27T10:46:22.566Z,6.78
2023-03-27T10:49:10.535Z,7.09
2023-03-27T10:52:06.191Z,7.39
2023-03-27T10:54:41.616Z,7.61
2023-03-27T10:57:19.577Z,7.79
2023-03-27T10:59:58.690Z,8.11
2023-03-27T11:02:36.830Z,8.33
2023-03-27T11:05:15.501Z,8.38
2023-03-27T11:07:53.063Z,8.32
2023-03-27T11:10:24.305Z,7.96
2023-03-27T11:12:58.652Z,7.74
2023-03-27T11:15:36.479Z,7.70
2023-03-27T11:18:10.420Z,7.64
2023-03-27T11:20:59.513Z,7.87
2023-03-27T11:23:54.494Z,7.67
2023-03-27T11:26:26.377Z,7.48
2023-03-27T11:29:12.241Z,7.15
2023-03-27T11:31:48.336Z,7.15
2023-03-27T11:34:28.625Z,7.49
2023-03-27T11:37:41.459Z,7.50
2023-03-27T11:40:20.275Z,6.90
2023-03-27T11:42:47.858Z,6.44
2023-03-27T11:45:21.036Z,5.68
2023-03-27T11:47:59.822Z,5.20
2023-03-27T11:50:39.507Z,5.08
2023-03-27T11:53:48.058Z,4.88
2023-03-27T11:56:51.599Z,5.25
2023-03-27T11:59:36.941Z,5.97
2023-03-27T12:02:22.244Z,6.32
2023-03-27T12:05:08.235Z,6.94
2023-03-27T12:07:47.678Z,7.15
2023-03-27T12:10:35.175Z,7.26
2023-03-27T12:13:34.860Z,7.37
2023-03-27T12:16:25.189Z,7.45
2023-03-27T12:19:10.721Z,7.76
2023-03-27T12:21:47.012Z,8.48
2023-03-27T12:24:22.737Z,8.73
2023-03-27T12:26:49.174Z,8.38
2023-03-27T12:29:30.956Z,7.54
2023-03-27T12:32:09.114Z,6.81
2023-03-27T12:34:36.199Z,6.81
2023-03-27T12:37:04.966Z,7.11
2023-03-27T12:39:46.885Z,6.68
2023-03-27T12:42:44.240Z,6.25
2023-03-27T12:45:18.677Z,6.19
2023-03-27T12:48:12.702Z,5.95
2023-03-27T12:50:54.600Z,5.83
2023-03-27T12:53:30.902Z,5.82
2023-03-27T12:56:19.641Z,6.09
2023-03-27T12:58:54.741Z,6.28
2023-03-27T13:04:26.073Z,7.26
2023-03-27T13:07:14.081Z,7.50
2023-03-27T13:09:42.333Z,7.47
2023-03-27T13:12:29.991Z,7.55
2023-03-27T13:15:17.597Z,7.55
2023-03-27T13:17:53.833Z,7.62
2023-03-27T13:20:57.889Z,7.68
2023-03-27T13:23:38.862Z,7.59
2023-03-27T13:26:34.005Z,7.59
2023-03-27T13:29:01.497Z,7.76
2023-03-27T13:31:46.200Z,7.84
2023-03-27T13:34:27.885Z,7.52
2023-03-27T13:37:09.122Z,6.56
2023-03-27T13:39:59.323Z,6.16
2023-03-27T13:42:34.786Z,6.28
2023-03-27T13:45:28.417Z,6.40
2023-03-27T13:48:10.286Z,6.10
2023-03-27T13:50:52.852Z,6.14
2023-03-27T13:53:51.029Z,6.19
2023-03-27T13:56:29.377Z,6.31
2023-03-27T13:59:08.407Z,6.79
2023-03-27T14:01:40.806Z,6.96
2023-03-27T14:04:24.711Z,7.13
2023-03-27T14:07:28.602Z,7.37
2023-03-27T14:10:35.013Z,7.68
2023-03-27T14:13:07.524Z,7.81
2023-03-27T14:15:58.549Z,7.82
2023-03-27T14:18:50.440Z,8.03
2023-03-27T14:21:35.573Z,7.79
2023-03-27T14:24:19.964Z,7.50
2023-03-27T14:26:46.687Z,7.09
2023-03-27T14:29:15.451Z,7.03
2023-03-27T14:31:44.264Z,6.87
2023-03-27T14:34:13.016Z,6.70
2023-03-27T14:36:42.525Z,6.83
2023-03-27T14:39:20.734Z,7.15
2023-03-27T14:41:48.386Z,7.37
2023-03-27T14:44:19.174Z,7.40
2023-03-27T14:46:50.455Z,7.53
2023-03-27T14:49:29.256Z,7.88
2023-03-27T14:52:01.617Z,8.04
2023-03-27T14:54:29.865Z,7.48
2023-03-27T14:57:01.895Z,7.39
2023-03-27T14:59:35.760Z,7.41
2023-03-27T15:02:07.299Z,7.15
2023-03-27T15:04:34.781Z,6.96
2023-03-27T15:07:18.510Z,6.79
2023-03-27T15:09:46.572Z,6.70
2023-03-27T15:12:13.158Z,6.60
2023-03-27T15:14:40.369Z,6.74
2023-03-27T15:17:19.303Z,7.00
2023-03-27T15:19:55.216Z,7.16
2023-03-27T15:22:31.475Z,6.97
2023-03-27T15:25:11.562Z,6.74
2023-03-27T15:27:44.354Z,6.69
2023-03-27T15:30:26.063Z,6.71
2023-03-27T15:32:56.910Z,6.80
2023-03-27T15:35:34.295Z,7.01
2023-03-27T15:38:07.308Z,7.05
2023-03-27T15:40:42.557Z,7.23
2023-03-27T15:43:17.526Z,7.42
2023-03-27T15:46:04.353Z,7.37
2023-03-27T15:48:44.381Z,7.15
2023-03-27T15:51:29.086Z,6.95
2023-03-27T15:53:58.972Z,6.75
2023-03-27T15:56:44.240Z,6.59
2023-03-27T15:59:16.053Z,6.49
2023-03-27T16:01:52.592Z,6.51
2023-03-27T16:04:38.119Z,6.52
2023-03-27T16:07:16.721Z,6.46
2023-03-27T16:09:56.248Z,6.39
2023-03-27T16:12:30.856Z,6.37
2023-03-27T16:14:58.845Z,6.29
2023-03-27T16:17:34.289Z,6.24
2023-03-27T16:20:24.112Z,6.26
2023-03-27T16:22:53.616Z,6.26
2023-03-27T16:25:22.714Z,6.24
2023-03-27T16:27:55.554Z,6.23
2023-03-27T16:30:35.880Z,6.21
2023-03-27T16:33:15.508Z,6.22
2023-03-27T16:35:47.783Z,6.17
2023-03-27T16:38:14.417Z,6.17
2023-03-27T16:40:43.498Z,6.19
2023-03-27T16:43:10.421Z,6.16
2023-03-27T16:45:41.674Z,6.15
2023-03-27T16:48:08.397Z,6.15
2023-03-27T16:50:37.497Z,6.12
2023-03-27T16:53:06.382Z,6.05
2023-03-27T16:55:35.645Z,5.96
2023-03-27T16:58:02.669Z,5.89
2023-03-27T17:00:34.283Z,5.82
2023-03-27T17:03:01.024Z,5.77
2023-03-27T17:05:33.844Z,5.75
2023-03-27T17:08:02.113Z,5.72
2023-03-27T17:10:30.086Z,5.69
2023-03-27T17:12:58.908Z,5.62
2023-03-27T17:15:25.455Z,5.59
2023-03-27T17:17:55.031Z,5.47
2023-03-27T17:20:23.785Z,5.34
2023-03-27T17:22:52.351Z,5.24
2023-03-27T17:25:18.943Z,5.17
2023-03-27T17:27:45.522Z,5.11
2023-03-27T17:30:17.723Z,5.07
2023-03-27T17:32:52.299Z,5.02
2023-03-27T17:35:18.929Z,4.98
2023-03-27T17:37:47.903Z,4.95
2023-03-27T17:40:14.483Z,4.90
2023-03-27T17:42:43.498Z,4.87
2023-03-27T17:45:10.708Z,4.85
2023-03-27T17:47:37.400Z,4.81
2023-03-27T17:50:04.463Z,4.75
2023-03-27T17:52:31.693Z,4.70
2023-03-27T17:54:59.972Z,4.63
2023-03-27T17:57:27.867Z,4.59
2023-03-27T17:59:56.637Z,4.52
2023-03-27T18:02:23.132Z,4.47
2023-03-27T18:04:52.381Z,4.43
2023-03-27T18:07:22.925Z,4.38
2023-03-27T18:09:52.377Z,4.36
2023-03-27T18:12:18.890Z,4.32
2023-03-27T18:14:47.980Z,4.23
2023-03-27T18:17:20.773Z,4.20
2023-03-27T18:19:49.565Z,4.20
2023-03-27T18:22:16.598Z,4.17
2023-03-27T18:24:45.479Z,4.12
2023-03-27T18:27:17.120Z,4.07
2023-03-27T18:29:46.185Z,4.05
2023-03-27T18:32:12.673Z,4.01
2023-03-27T18:34:41.432Z,4.01
2023-03-27T18:37:08.352Z,3.95
2023-03-27T18:39:37.713Z,3.91
2023-03-27T18:42:06.798Z,3.89
2023-03-27T18:44:33.266Z,3.85
2023-03-27T18:47:00.368Z,3.80
2023-03-27T18:49:27.018Z,3.77
2023-03-27T18:51:53.923Z,3.73
2023-03-27T18:54:24.918Z,3.69
2023-03-27T18:56:52.021Z,3.66
2023-03-27T18:59:22.678Z,3.65
2023-03-27T19:01:51.388Z,3.63
2023-03-27T19:04:20.449Z,3.61
2023-03-27T19:06:49.225Z,3.58
2023-03-27T19:09:19.967Z,3.56
2023-03-27T19:11:52.133Z,3.53
2023-03-27T19:14:23.758Z,3.52
2023-03-27T19:16:55.078Z,3.48
2023-03-27T19:19:22.423Z,3.48
2023-03-27T19:21:54.511Z,3.46
2023-03-27T19:24:21.020Z,3.46
2023-03-27T19:26:47.574Z,3.46
2023-03-27T19:29:16.428Z,3.41
2023-03-27T19:31:45.285Z,3.35
2023-03-27T19:34:14.038Z,3.33
2023-03-27T19:36:42.856Z,3.28
2023-03-27T19:39:09.696Z,3.20
2023-03-27T19:41:36.325Z,3.16
2023-03-27T19:44:05.577Z,3.13
2023-03-27T19:46:35.089Z,3.04
2023-03-27T19:49:01.630Z,2.96
2023-03-27T19:51:28.512Z,2.95
2023-03-27T19:53:55.526Z,2.96
2023-03-27T19:56:22.469Z,2.94
2023-03-27T19:58:49.712Z,2.91
2023-03-27T20:01:19.791Z,2.85
2023-03-27T20:03:48.963Z,2.84
2023-03-27T20:06:19.494Z,2.81
2023-03-27T20:08:46.652Z,2.80
2023-03-27T20:11:16.156Z,2.77
2023-03-27T20:13:55.272Z,2.79
2023-03-27T20:16:26.223Z,2.80
2023-03-27T20:19:03.449Z,2.81
2023-03-27T20:21:38.086Z,2.78
2023-03-27T20:24:11.138Z,2.73
2023-03-27T20:26:39.457Z,2.68
2023-03-27T20:29:10.744Z,2.68
2023-03-27T20:31:38.305Z,2.61
2023-03-27T20:34:08.349Z,2.59
2023-03-27T20:36:35.281Z,2.53
2023-03-27T20:39:04.709Z,2.47
2023-03-27T20:41:31.332Z,2.43
2023-03-27T20:44:00.703Z,2.41
2023-03-27T20:46:30.581Z,2.38
2023-03-27T20:48:57.381Z,2.32
2023-03-27T20:51:25.040Z,2.30
2023-03-27T20:53:56.147Z,2.31
2023-03-27T20:56:23.276Z,2.29
2023-03-27T20:58:51.403Z,2.29
2023-03-27T21:01:28.010Z,2.26
2023-03-27T21:03:58.633Z,2.24
2023-03-27T21:06:25.822Z,2.20
2023-03-27T21:08:52.593Z,2.19
2023-03-27T21:11:21.499Z,2.20
2023-03-27T21:13:48.059Z,2.17
2023-03-27T21:16:14.555Z,2.16
2023-03-27T21:18:41.297Z,2.14
2023-03-27T21:21:15.771Z,2.09
2023-03-27T21:23:42.252Z,2.02
2023-03-27T21:26:08.783Z,1.96
2023-03-27T21:28:35.298Z,1.91
2023-03-27T21:31:06.616Z,1.84
2023-03-27T21:33:35.695Z,1.83
2023-03-27T21:36:06.981Z,1.84
2023-03-27T21:38:36.024Z,1.85
2023-03-27T21:41:03.434Z,1.86
2023-03-27T21:43:31.231Z,1.83
2023-03-27T21:46:03.986Z,1.79
2023-03-27T21:48:33.750Z,1.77
2023-03-27T21:51:01.476Z,1.73
2023-03-27T21:53:28.609Z,1.70
2023-03-27T21:55:57.621Z,1.69
2023-03-27T21:58:25.190Z,1.67
2023-03-27T22:00:51.789Z,1.66
2023-03-27T22:03:18.555Z,1.63
2023-03-27T22:06:01.118Z,1.61
2023-03-27T22:08:33.939Z,1.58
2023-03-27T22:11:02.876Z,1.58
2023-03-27T22:13:34.239Z,1.57
2023-03-27T22:16:02.458Z,1.53
2023-03-27T22:18:30.600Z,1.49
2023-03-27T22:20:57.370Z,1.48
2023-03-27T22:23:23.898Z,1.45
2023-03-27T22:25:56.035Z,1.42
2023-03-27T22:28:26.000Z,1.42
2023-03-27T22:30:52.511Z,1.42
2023-03-27T22:33:18.976Z,1.44
2023-03-27T22:35:49.421Z,1.41
2023-03-27T22:38:18.595Z,1.41
2023-03-27T22:40:47.562Z,1.41
2023-03-27T22:43:22.333Z,1.40
2023-03-27T22:45:50.129Z,1.33
2023-03-27T22:48:18.947Z,1.29
2023-03-27T22:50:54.056Z,1.27
2023-03-27T22:53:20.949Z,1.23
2023-03-27T22:55:55.490Z,1.19
2023-03-27T22:58:23.342Z,1.17
2023-03-27T23:00:51.488Z,1.11
2023-03-27T23:03:21.569Z,1.10
2023-03-27T23:05:51.933Z,1.06
2023-03-27T23:08:21.121Z,1.04
2023-03-27T23:11:00.589Z,1.03
2023-03-27T23:13:31.948Z,1.03
2023-03-27T23:16:03.375Z,1.03
2023-03-27T23:18:30.198Z,1.06
2023-03-27T23:21:04.346Z,1.03
2023-03-27T23:23:32.046Z,0.99
2023-03-27T23:25:59.015Z,0.96
2023-03-27T23:28:29.477Z,0.90
2023-03-27T23:30:59.064Z,0.86
2023-03-27T23:33:27.096Z,0.81
2023-03-27T23:36:02.789Z,0.78
2023-03-27T23:38:31.671Z,0.79
2023-03-27T23:41:00.686Z,0.79
2023-03-27T23:43:31.244Z,0.77
2023-03-27T23:46:01.069Z,0.75
2023-03-27T23:48:30.689Z,0.75
2023-03-27T23:51:00.761Z,0.72
2023-03-27T23:53:29.234Z,0.69
2023-03-27T23:55:59.301Z,0.67
2023-03-27T23:58:34.080Z,0.63
